createdAt,value
2018-03-28T00:01:56.356Z,14.23
2018-03-28T00:04:24.557Z,14.97
2018-03-28T00:06:52.777Z,13.70
2018-03-28T00:09:22.208Z,15.37
2018-03-28T00:11:50.410Z,13.37
2018-03-28T00:14:19.382Z,13.90
2018-03-28T00:16:47.669Z,14.37
2018-03-28T00:19:15.876Z,13.87
2018-03-28T00:21:44.222Z,14.20
2018-03-28T00:24:12.422Z,15.90
2018-03-28T00:26:40.658Z,13.90
2018-03-28T00:29:09.042Z,14.03
2018-03-28T00:31:38.909Z,15.00
2018-03-28T00:34:07.632Z,12.80
2018-03-28T02:01:34.994Z,12.67
2018-03-28T02:04:03.537Z,15.80
2018-03-28T02:06:31.744Z,14.10
2018-03-28T02:09:01.449Z,15.07
2018-03-28T02:11:29.906Z,15.17
2018-03-28T02:13:58.409Z,14.63
2018-03-28T02:16:27.600Z,16.03
2018-03-28T02:19:01.758Z,15.10
2018-03-28T02:21:30.405Z,15.27
2018-03-28T02:23:59.372Z,16.07
2018-03-28T02:26:27.589Z,14.90
2018-03-28T02:28:55.817Z,15.43
2018-03-28T02:31:24.438Z,14.77
2018-03-28T02:33:53.886Z,16.40
2018-03-28T02:36:22.918Z,13.90
2018-03-28T02:38:51.130Z,17.13
2018-03-28T02:41:19.726Z,15.57
2018-03-28T02:43:47.925Z,14.23
2018-03-28T02:46:16.350Z,14.23
2018-03-28T02:48:45.333Z,13.57
2018-03-28T02:51:13.644Z,13.53
2018-03-28T02:53:42.618Z,14.70
2018-03-28T02:56:11.918Z,14.33
2018-03-28T02:58:40.125Z,15.90
2018-03-28T03:01:08.321Z,13.50
2018-03-28T03:03:36.551Z,13.90
2018-03-28T03:06:05.261Z,13.00
2018-03-28T03:08:33.485Z,16.67
2018-03-28T03:11:01.888Z,14.60
2018-03-28T03:13:31.239Z,14.03
2018-03-28T03:15:59.982Z,14.40
2018-03-28T03:18:28.949Z,13.40
2018-03-28T03:20:57.554Z,16.23
2018-03-28T03:23:25.757Z,14.47
2018-03-28T03:25:53.974Z,14.53
2018-03-28T03:28:22.690Z,15.07
2018-03-28T03:30:53.438Z,15.77
2018-03-28T03:33:22.409Z,14.57
2018-03-28T03:35:50.671Z,15.47
2018-03-28T03:38:19.290Z,14.90
2018-03-28T03:40:47.817Z,17.33
2018-03-28T03:43:16.024Z,15.67
2018-03-28T03:45:44.634Z,15.10
2018-03-28T03:48:13.762Z,16.60
2018-03-28T03:50:42.243Z,13.90
2018-03-28T03:53:10.561Z,14.67
2018-03-28T03:55:39.125Z,16.20
2018-03-28T03:58:07.330Z,15.73
2018-03-28T04:00:35.542Z,13.37
2018-03-28T04:03:04.534Z,15.23
2018-03-28T04:05:33.496Z,15.27
2018-03-28T04:08:02.024Z,12.87
2018-03-28T04:10:31.164Z,14.30
2018-03-28T04:12:59.372Z,14.83
2018-03-28T04:18:02.173Z,15.53
2018-03-28T04:20:31.681Z,15.70
2018-03-28T04:23:01.261Z,14.37
2018-03-28T04:25:29.533Z,13.90
2018-03-28T04:27:57.709Z,14.70
2018-03-28T04:30:25.930Z,15.23
2018-03-28T04:32:55.206Z,15.00
2018-03-28T04:35:23.461Z,14.40
2018-03-28T04:37:52.066Z,14.10
2018-03-28T04:40:20.260Z,15.80
2018-03-28T04:42:48.465Z,14.10
2018-03-28T04:45:17.326Z,16.37
2018-03-28T04:47:46.310Z,13.90
2018-03-28T04:50:14.613Z,13.00
2018-03-28T04:52:42.901Z,15.63
2018-03-28T04:55:11.450Z,16.10
2018-03-28T04:57:40.144Z,15.30
2018-03-28T05:00:09.105Z,14.60
2018-03-28T05:02:37.309Z,13.73
2018-03-28T05:05:05.552Z,17.07
2018-03-28T05:07:33.722Z,14.97
2018-03-28T05:10:05.388Z,14.50
2018-03-28T05:12:33.954Z,13.60
2018-03-28T05:15:02.393Z,15.37
2018-03-28T05:17:31.842Z,14.70
2018-03-28T05:20:00.362Z,16.47
2018-03-28T05:22:28.823Z,16.27
2018-03-28T05:24:57.558Z,14.57
2018-03-28T05:27:25.752Z,15.70
2018-03-28T05:29:53.955Z,12.23
2018-03-28T05:32:22.549Z,15.23
2018-03-28T05:34:51.322Z,13.40
2018-03-28T05:37:19.540Z,14.13
2018-03-28T05:39:48.500Z,15.17
2018-03-28T05:42:16.734Z,12.97
2018-03-28T05:44:45.293Z,14.77
2018-03-28T05:47:14.266Z,15.00
2018-03-28T05:49:44.667Z,14.83
2018-03-28T05:52:12.825Z,14.10
2018-03-28T05:54:41.362Z,13.30
2018-03-28T05:57:09.837Z,13.80
2018-03-28T05:59:38.047Z,14.60
2018-03-28T06:02:06.256Z,14.07
2018-03-28T06:04:34.901Z,13.53
2018-03-28T06:07:03.869Z,13.10
2018-03-28T06:09:35.242Z,15.30
2018-03-28T06:12:04.726Z,14.00
2018-03-28T06:14:33.283Z,15.90
2018-03-28T06:17:01.706Z,13.20
2018-03-28T06:19:29.917Z,13.47
2018-03-28T06:21:58.219Z,13.80
2018-03-28T06:24:26.438Z,15.17
2018-03-28T06:26:55.406Z,13.03
2018-03-28T06:29:23.656Z,11.80
2018-03-28T06:31:52.105Z,13.17
2018-03-28T06:34:20.310Z,11.93
2018-03-28T06:36:48.513Z,13.10
2018-03-28T06:39:16.729Z,12.67
2018-03-28T06:41:44.937Z,11.17
2018-03-28T06:44:13.146Z,13.90
2018-03-28T06:46:41.930Z,12.07
2018-03-28T06:49:10.134Z,10.90
2018-03-28T06:51:39.010Z,11.10
2018-03-28T06:54:07.782Z,11.07
2018-03-28T06:56:36.590Z,10.40
2018-03-28T06:59:06.467Z,9.17
2018-03-28T07:01:34.661Z,10.73
2018-03-28T07:04:03.686Z,9.40
2018-03-28T07:06:31.886Z,12.57
2018-03-28T07:09:00.756Z,8.90
2018-03-28T07:11:29.532Z,10.10
2018-03-28T07:13:59.217Z,8.10
2018-03-28T07:16:27.722Z,9.87
2018-03-28T07:18:55.918Z,9.80
2018-03-28T07:21:24.621Z,10.15
2018-03-28T07:23:52.838Z,9.53
2018-03-28T07:26:21.038Z,9.90
2018-03-28T07:28:50.233Z,11.10
2018-03-28T07:31:20.028Z,9.13
2018-03-28T07:33:48.230Z,7.87
2018-03-28T07:36:17.204Z,9.37
2018-03-28T07:38:45.411Z,8.33
2018-03-28T07:41:13.702Z,7.50
2018-03-28T07:43:41.899Z,7.80
2018-03-28T07:46:10.638Z,9.20
2018-03-28T07:48:39.616Z,7.57
2018-03-28T07:51:09.275Z,8.33
2018-03-28T07:53:37.517Z,6.90
2018-03-28T07:56:06.133Z,6.33
2018-03-28T07:58:34.365Z,5.63
2018-03-28T08:01:03.686Z,6.67
2018-03-28T08:03:33.089Z,5.70
2018-03-28T08:06:02.196Z,7.20
2018-03-28T08:08:31.167Z,4.97
2018-03-28T08:11:00.035Z,6.30
2018-03-28T08:13:34.538Z,5.67
2018-03-28T08:16:05.426Z,5.40
2018-03-28T08:18:33.928Z,5.00
2018-03-28T08:21:03.738Z,4.70
2018-03-28T08:23:33.567Z,5.67
2018-03-28T08:26:01.762Z,5.70
2018-03-28T08:28:30.162Z,5.80
2018-03-28T08:31:08.078Z,5.17
2018-03-28T08:33:36.444Z,5.00
2018-03-28T08:36:04.667Z,4.93
2018-03-28T08:38:33.132Z,5.33
2018-03-28T08:41:02.096Z,6.37
2018-03-28T08:43:31.065Z,6.93
2018-03-28T08:45:59.573Z,6.00
2018-03-28T08:48:27.769Z,6.20
2018-03-28T08:50:56.589Z,7.13
2018-03-28T08:53:24.795Z,7.97
2018-03-28T08:55:53.427Z,6.67
2018-03-28T08:58:22.396Z,7.10
2018-03-28T09:00:51.310Z,6.73
2018-03-28T09:03:19.523Z,7.20
2018-03-28T09:05:47.732Z,7.50
2018-03-28T09:08:16.565Z,6.67
2018-03-28T09:10:45.830Z,6.87
2018-03-28T09:13:20.772Z,6.17
2018-03-28T09:15:49.427Z,7.57
2018-03-28T09:18:17.884Z,7.33
2018-03-28T09:20:48.096Z,8.40
2018-03-28T09:23:16.300Z,7.63
2018-03-28T09:25:45.143Z,7.33
2018-03-28T09:28:14.317Z,7.27
2018-03-28T09:30:42.918Z,7.57
2018-03-28T09:33:11.409Z,7.30
2018-03-28T09:35:40.377Z,8.77
2018-03-28T09:38:08.574Z,6.73
2018-03-28T09:40:36.794Z,7.23
2018-03-28T09:43:04.994Z,7.43
2018-03-28T09:45:33.609Z,6.70
2018-03-28T09:48:02.578Z,5.93
2018-03-28T09:50:31.810Z,7.27
2018-03-28T09:53:00.788Z,8.80
2018-03-28T09:55:29.315Z,5.90
2018-03-28T09:57:58.042Z,7.30
2018-03-28T10:00:26.831Z,7.03
2018-03-28T10:03:00.553Z,6.67
2018-03-28T10:05:34.311Z,6.53
2018-03-28T10:08:04.081Z,6.50
2018-03-28T10:10:32.981Z,5.77
2018-03-28T10:13:01.969Z,6.27
2018-03-28T10:15:37.682Z,6.50
2018-03-28T10:18:06.541Z,5.60
2018-03-28T10:20:35.870Z,5.90
2018-03-28T10:23:09.644Z,5.43
2018-03-28T10:25:37.806Z,5.90
2018-03-28T10:28:06.793Z,4.93
2018-03-28T10:30:35.757Z,6.27
2018-03-28T10:33:04.557Z,6.23
2018-03-28T10:35:32.764Z,5.33
2018-03-28T10:38:01.735Z,5.73
2018-03-28T10:40:30.136Z,4.50
2018-03-28T10:42:58.598Z,5.13
2018-03-28T10:45:27.673Z,7.43
2018-03-28T10:47:55.869Z,4.47
2018-03-28T10:50:24.340Z,4.13
2018-03-28T10:52:52.537Z,3.97
2018-03-28T10:55:22.192Z,3.60
2018-03-28T10:57:50.657Z,5.40
2018-03-28T11:00:18.903Z,4.63
2018-03-28T11:02:47.185Z,4.60
2018-03-28T11:05:15.695Z,4.83
2018-03-28T11:07:43.909Z,4.80
2018-03-28T11:10:13.049Z,4.23
2018-03-28T11:12:41.258Z,4.40
2018-03-28T11:15:10.017Z,5.10
2018-03-28T11:17:44.953Z,5.33
2018-03-28T11:20:15.687Z,4.70
2018-03-28T11:22:43.885Z,5.10
2018-03-28T11:25:12.097Z,5.70
2018-03-28T11:27:40.583Z,4.43
2018-03-28T11:30:09.373Z,4.53
2018-03-28T11:32:38.003Z,3.93
2018-03-28T11:35:06.191Z,4.00
2018-03-28T11:37:34.598Z,5.13
2018-03-28T11:40:02.780Z,3.80
2018-03-28T11:42:30.982Z,4.73
2018-03-28T11:45:07.510Z,4.17
2018-03-28T11:47:35.738Z,4.77
2018-03-28T11:50:05.118Z,5.17
2018-03-28T11:52:33.329Z,4.10
2018-03-28T11:55:01.602Z,4.23
2018-03-28T11:57:29.938Z,4.80
2018-03-28T11:59:58.150Z,4.53
2018-03-28T12:02:26.348Z,4.57
2018-03-28T12:04:54.997Z,4.57
2018-03-28T12:07:23.191Z,4.30
2018-03-28T12:09:51.397Z,4.80
2018-03-28T12:12:20.156Z,5.20
2018-03-28T12:14:48.797Z,4.70
2018-03-28T12:17:17.109Z,5.60
2018-03-28T12:19:45.349Z,4.30
2018-03-28T12:22:13.637Z,5.07
2018-03-28T12:24:41.927Z,4.40
2018-03-28T12:27:10.121Z,5.60
2018-03-28T12:29:38.787Z,5.10
2018-03-28T12:32:07.898Z,4.70
2018-03-28T12:34:36.862Z,5.30
2018-03-28T12:37:05.055Z,5.87
2018-03-28T12:39:34.216Z,4.93
2018-03-28T12:42:02.875Z,5.20
2018-03-28T12:44:38.441Z,4.53
2018-03-28T12:47:06.633Z,4.57
2018-03-28T12:49:34.882Z,5.30
2018-03-28T12:52:03.627Z,4.10
2018-03-28T12:54:32.075Z,5.07
2018-03-28T12:57:00.804Z,4.30
2018-03-28T12:59:29.013Z,4.30
2018-03-28T13:01:57.494Z,5.00
2018-03-28T13:04:25.709Z,5.27
2018-03-28T13:06:53.908Z,4.90
2018-03-28T13:09:22.900Z,4.73
2018-03-28T13:11:52.201Z,3.50
2018-03-28T13:14:21.397Z,3.97
2018-03-28T13:16:49.985Z,4.43
2018-03-28T13:19:18.932Z,3.70
2018-03-28T13:21:47.842Z,4.03
2018-03-28T13:24:15.999Z,4.70
2018-03-28T13:26:44.189Z,3.80
2018-03-28T13:29:12.385Z,4.60
2018-03-28T13:31:41.281Z,3.60
2018-03-28T13:34:10.258Z,4.97
2018-03-28T13:36:39.131Z,4.63
2018-03-28T13:39:07.345Z,4.73
2018-03-28T13:41:36.317Z,4.17
2018-03-28T13:44:04.542Z,3.90
2018-03-28T13:46:33.410Z,4.57
2018-03-28T13:49:02.698Z,4.40
2018-03-28T13:51:31.171Z,4.03
2018-03-28T13:53:59.541Z,3.35
2018-03-28T13:56:28.146Z,3.47
2018-03-28T13:58:56.347Z,3.70
2018-03-28T14:01:25.314Z,4.10
2018-03-28T14:03:53.537Z,3.83
2018-03-28T14:06:21.754Z,3.20
2018-03-28T14:08:51.865Z,3.97
2018-03-28T14:11:20.582Z,3.50
2018-03-28T14:13:49.865Z,3.40
2018-03-28T14:16:18.262Z,3.87
2018-03-28T14:18:47.248Z,4.05
2018-03-28T14:21:15.559Z,3.83
2018-03-28T14:23:44.128Z,4.00
2018-03-28T14:26:12.329Z,3.90
2018-03-28T14:28:40.545Z,3.90
2018-03-28T14:31:09.038Z,3.20
2018-03-28T14:33:43.401Z,3.23
2018-03-28T14:36:11.579Z,3.60
2018-03-28T14:38:39.781Z,3.23
2018-03-28T14:41:07.986Z,3.30
2018-03-28T14:43:36.186Z,4.10
2018-03-28T14:46:05.669Z,3.50
2018-03-28T14:48:33.861Z,3.37
2018-03-28T14:51:03.248Z,3.60
2018-03-28T14:53:31.445Z,3.60
2018-03-28T14:56:00.649Z,4.10
2018-03-28T14:58:28.853Z,3.40
2018-03-28T15:00:57.053Z,4.40
2018-03-28T15:03:25.297Z,4.10
2018-03-28T15:05:53.497Z,3.90
2018-03-28T15:08:21.709Z,3.70
2018-03-28T15:10:51.136Z,4.30
2018-03-28T15:13:22.839Z,3.97
2018-03-28T15:15:51.678Z,3.63
2018-03-28T15:18:20.646Z,3.67
2018-03-28T15:20:49.342Z,3.90
2018-03-28T15:23:18.318Z,4.20
2018-03-28T15:25:46.517Z,4.17
2018-03-28T15:28:15.853Z,4.03
2018-03-28T15:30:44.067Z,3.33
2018-03-28T15:33:13.008Z,4.60
2018-03-28T15:35:41.209Z,3.30
2018-03-28T15:38:09.409Z,3.67
2018-03-28T15:40:37.633Z,3.73
2018-03-28T15:43:05.820Z,4.00
2018-03-28T15:45:34.829Z,3.73
2018-03-28T15:48:03.029Z,3.80
2018-03-28T15:50:31.338Z,3.93
2018-03-28T15:52:59.506Z,4.50
2018-03-28T15:55:28.301Z,5.00
2018-03-28T15:57:57.818Z,3.87
2018-03-28T16:00:26.790Z,4.20
2018-03-28T16:02:54.992Z,4.23
2018-03-28T16:05:23.968Z,4.47
2018-03-28T16:07:53.401Z,4.50
2018-03-28T16:10:21.699Z,4.40
2018-03-28T16:12:49.900Z,4.57
2018-03-28T16:15:19.027Z,4.07
2018-03-28T16:17:48.074Z,4.60
2018-03-28T16:20:16.500Z,5.10
2018-03-28T16:22:45.839Z,4.40
2018-03-28T16:25:14.046Z,4.27
2018-03-28T16:27:42.249Z,5.60
2018-03-28T16:30:10.467Z,5.53
2018-03-28T16:32:39.039Z,6.00
2018-03-28T16:35:07.301Z,6.70
2018-03-28T16:37:35.830Z,5.80
2018-03-28T16:40:04.051Z,4.43
2018-03-28T16:42:33.022Z,5.07
2018-03-28T16:45:01.949Z,4.53
2018-03-28T16:47:30.924Z,4.77
2018-03-28T16:49:59.619Z,4.40
2018-03-28T16:52:28.200Z,4.93
2018-03-28T16:54:58.335Z,4.70
2018-03-28T16:57:26.809Z,5.20
2018-03-28T16:59:55.503Z,4.60
2018-03-28T17:02:24.506Z,4.77
2018-03-28T17:04:53.397Z,6.07
2018-03-28T17:07:22.372Z,4.57
2018-03-28T17:09:50.548Z,4.77
2018-03-28T17:12:19.733Z,4.77
2018-03-28T17:14:48.530Z,4.87
2018-03-28T17:17:17.818Z,4.77
2018-03-28T17:19:46.202Z,4.10
2018-03-28T17:22:15.389Z,4.33
2018-03-28T17:24:43.608Z,3.30
2018-03-28T17:27:12.062Z,3.53
2018-03-28T17:29:40.281Z,4.40
2018-03-28T17:32:09.011Z,3.47
2018-03-28T17:34:37.249Z,3.70
2018-03-28T17:37:05.453Z,3.13
2018-03-28T17:39:34.506Z,4.40
2018-03-28T17:42:02.714Z,3.83
2018-03-28T17:44:31.007Z,3.23
2018-03-28T17:46:59.658Z,3.20
2018-03-28T17:49:27.875Z,3.47
2018-03-28T17:51:56.661Z,3.43
2018-03-28T17:54:24.872Z,3.33
2018-03-28T17:56:54.985Z,4.00
2018-03-28T17:59:23.961Z,4.77
2018-03-28T18:01:52.161Z,7.17
2018-03-28T18:04:20.771Z,4.47
2018-03-28T18:06:50.232Z,4.20
2018-03-28T18:09:18.572Z,2.97
2018-03-28T18:11:47.049Z,2.73
2018-03-28T18:14:16.402Z,3.00
2018-03-28T18:16:44.845Z,3.97
2018-03-28T18:19:14.707Z,3.93
2018-03-28T18:21:43.955Z,3.40
2018-03-28T18:24:13.008Z,3.70
2018-03-28T18:26:41.959Z,4.83
2018-03-28T18:29:10.548Z,3.60
2018-03-28T18:31:40.276Z,3.20
2018-03-28T18:34:09.227Z,4.30
2018-03-28T18:36:37.432Z,5.57
2018-03-28T18:39:06.025Z,3.53
2018-03-28T18:41:34.232Z,3.70
2018-03-28T18:44:03.585Z,3.20
2018-03-28T18:46:31.823Z,3.37
2018-03-28T18:49:00.528Z,3.20
2018-03-28T18:51:29.032Z,3.70
2018-03-28T18:53:57.670Z,3.97
2018-03-28T18:56:26.525Z,3.70
2018-03-28T18:58:54.732Z,4.20
2018-03-28T19:01:23.271Z,3.67
2018-03-28T19:03:51.642Z,5.10
2018-03-28T19:06:19.797Z,5.63
2018-03-28T19:08:48.629Z,4.67
2018-03-28T19:11:17.134Z,4.70
2018-03-28T19:13:46.423Z,5.70
2018-03-28T19:16:16.348Z,5.80
2018-03-28T19:18:45.320Z,6.03
2018-03-28T19:21:13.731Z,5.13
2018-03-28T19:23:43.039Z,4.30
2018-03-28T19:26:11.236Z,5.33
2018-03-28T19:28:40.456Z,5.40
2018-03-28T19:31:08.654Z,5.60
2018-03-28T19:33:38.472Z,5.90
2018-03-28T19:36:07.084Z,6.00
2018-03-28T19:38:35.290Z,5.70
2018-03-28T19:41:04.068Z,5.20
2018-03-28T19:43:32.272Z,6.87
2018-03-28T19:46:00.973Z,6.87
2018-03-28T19:48:29.220Z,5.90
2018-03-28T19:50:57.766Z,6.63
2018-03-28T19:53:25.997Z,7.73
2018-03-28T19:55:54.526Z,6.40
2018-03-28T19:58:22.877Z,7.50
2018-03-28T20:00:51.104Z,6.23
2018-03-28T20:03:19.771Z,5.13
2018-03-28T20:05:47.976Z,4.20
2018-03-28T20:08:16.183Z,4.60
2018-03-28T20:10:44.814Z,3.77
2018-03-28T20:13:13.029Z,4.00
2018-03-28T20:15:41.636Z,2.90
2018-03-28T20:18:09.859Z,2.80
2018-03-28T20:20:38.921Z,3.20
2018-03-28T20:23:07.894Z,3.37
2018-03-28T20:25:36.089Z,2.63
2018-03-28T20:28:05.069Z,3.00
2018-03-28T20:30:34.054Z,3.20
2018-03-28T20:33:02.760Z,2.73
2018-03-28T20:35:31.733Z,3.27
2018-03-28T20:37:59.921Z,3.70
2018-03-28T20:40:28.914Z,3.00
2018-03-28T20:42:57.831Z,2.30
2018-03-28T20:45:27.538Z,3.10
2018-03-28T20:47:56.506Z,2.40
2018-03-28T20:50:24.836Z,2.50
2018-03-28T20:52:53.801Z,2.37
2018-03-28T20:55:22.390Z,2.07
2018-03-28T20:57:50.686Z,2.00
2018-03-28T21:00:19.225Z,1.80
2018-03-28T21:02:47.414Z,1.70
2018-03-28T21:05:16.393Z,2.07
2018-03-28T21:07:44.892Z,1.53
2018-03-28T21:10:14.406Z,2.07
2018-03-28T21:12:43.382Z,1.67
2018-03-28T21:15:12.580Z,2.30
2018-03-28T21:17:41.172Z,2.17
2018-03-28T21:20:16.137Z,2.00
2018-03-28T21:22:44.372Z,2.13
2018-03-28T21:25:12.546Z,2.33
2018-03-28T21:27:41.801Z,2.17
2018-03-28T21:30:10.005Z,2.40
2018-03-28T21:32:38.278Z,2.23
2018-03-28T21:35:06.482Z,2.40
2018-03-28T21:37:34.693Z,2.43
2018-03-28T21:40:02.977Z,2.60
2018-03-28T21:42:31.113Z,2.20
2018-03-28T21:45:00.746Z,2.07
2018-03-28T21:47:29.697Z,2.27
2018-03-28T21:49:58.275Z,1.53
2018-03-28T21:52:26.484Z,2.30
2018-03-28T21:54:59.794Z,2.10
2018-03-28T21:57:28.492Z,2.30
2018-03-28T21:59:56.693Z,1.93
2018-03-28T22:02:24.893Z,1.80
2018-03-28T22:04:53.494Z,2.57
2018-03-28T22:07:22.464Z,2.97
2018-03-28T22:09:51.013Z,2.43
2018-03-28T22:12:20.369Z,2.17
2018-03-28T22:14:49.857Z,2.53
2018-03-28T22:17:18.556Z,2.43
2018-03-28T22:19:46.757Z,2.83
2018-03-28T22:22:15.071Z,2.20
2018-03-28T22:24:43.270Z,2.33
2018-03-28T22:27:11.469Z,2.60
2018-03-28T22:29:40.769Z,2.77
2018-03-28T22:32:10.906Z,1.70
2018-03-28T22:34:39.103Z,2.30
2018-03-28T22:37:07.308Z,1.97
2018-03-28T22:39:36.302Z,2.03
2018-03-28T22:42:04.958Z,3.47
2018-03-28T22:44:40.786Z,2.70
2018-03-28T22:47:09.750Z,2.57
2018-03-28T22:49:38.471Z,2.13
2018-03-28T22:52:07.862Z,3.40
2018-03-28T22:54:36.907Z,2.43
2018-03-28T22:57:05.617Z,2.30
2018-03-28T22:59:33.930Z,2.70
2018-03-28T23:02:02.901Z,2.73
2018-03-28T23:04:31.101Z,2.50
2018-03-28T23:07:00.096Z,3.07
2018-03-28T23:09:28.293Z,2.80
2018-03-28T23:11:57.149Z,2.37
2018-03-28T23:14:26.841Z,3.20
2018-03-28T23:16:55.804Z,3.40
2018-03-28T23:19:24.002Z,2.73
2018-03-28T23:21:52.485Z,3.03
2018-03-28T23:24:20.685Z,3.27
2018-03-28T23:26:48.877Z,2.80
2018-03-28T23:29:17.097Z,2.90
2018-03-28T23:31:51.869Z,2.90
2018-03-28T23:34:20.076Z,4.03
2018-03-28T23:36:48.273Z,3.83
2018-03-28T23:39:16.487Z,3.70
2018-03-28T23:41:44.682Z,3.27
2018-03-28T23:44:16.738Z,4.40
2018-03-28T23:46:45.228Z,4.27
2018-03-28T23:49:14.624Z,3.47
2018-03-28T23:51:43.894Z,3.63
2018-03-28T23:54:12.096Z,3.50
2018-03-28T23:56:41.141Z,3.57
2018-03-28T23:59:09.345Z,3.43
